createdAt,value
2022-12-08T00:01:14.014Z,8.90
2022-12-08T00:03:41.563Z,8.80
2022-12-08T00:06:51.479Z,8.80
2022-12-08T00:09:23.611Z,8.90
2022-12-08T00:11:52.336Z,8.80
2022-12-08T00:14:19.391Z,8.80
2022-12-08T00:16:46.290Z,8.80
2022-12-08T00:19:15.238Z,8.70
2022-12-08T00:21:42.632Z,8.60
2022-12-08T00:24:09.494Z,8.70
2022-12-08T00:26:37.536Z,8.60
2022-12-08T00:29:04.995Z,8.60
2022-12-08T00:31:32.529Z,8.70
2022-12-08T00:34:00.759Z,8.70
2022-12-08T00:36:28.042Z,8.80
2022-12-08T00:38:54.978Z,8.80
2022-12-08T00:41:43.016Z,8.90
2022-12-08T00:44:12.305Z,8.90
2022-12-08T00:46:39.249Z,8.90
2022-12-08T00:49:06.855Z,9.00
2022-12-08T00:51:34.301Z,8.90
2022-12-08T00:54:01.377Z,9.00
2022-12-08T00:56:28.152Z,9.00
2022-12-08T00:58:54.966Z,8.80
2022-12-08T01:01:22.504Z,8.80
2022-12-08T01:03:49.843Z,8.70
2022-12-08T01:06:16.794Z,8.70
2022-12-08T01:08:44.235Z,8.80
2022-12-08T01:11:15.254Z,8.90
2022-12-08T01:13:42.772Z,8.80
2022-12-08T01:16:10.479Z,8.80
2022-12-08T01:18:37.858Z,8.80
2022-12-08T01:21:08.101Z,8.70
2022-12-08T01:23:35.689Z,8.60
2022-12-08T01:26:04.032Z,8.50
2022-12-08T01:28:31.887Z,8.50
2022-12-08T01:30:59.900Z,8.50
2022-12-08T01:33:26.963Z,8.40
2022-12-08T01:35:55.561Z,8.50
2022-12-08T01:38:22.787Z,8.50
2022-12-08T01:40:49.993Z,8.60
2022-12-08T01:43:20.864Z,8.60
2022-12-08T01:45:48.495Z,8.70
2022-12-08T01:48:24.407Z,8.80
2022-12-08T01:50:54.114Z,8.80
2022-12-08T01:53:30.445Z,8.70
2022-12-08T01:56:04.900Z,8.80
2022-12-08T01:58:36.992Z,8.80
2022-12-08T02:01:07.186Z,8.90
2022-12-08T02:03:46.741Z,8.80
2022-12-08T02:06:15.425Z,8.80
2022-12-08T02:08:42.712Z,8.80
2022-12-08T02:11:11.219Z,8.70
2022-12-08T02:13:40.133Z,8.60
2022-12-08T02:16:25.571Z,8.60
2022-12-08T02:19:22.548Z,8.60
2022-12-08T02:22:02.914Z,8.60
2022-12-08T02:24:41.951Z,8.60
2022-12-08T02:27:15.265Z,8.60
2022-12-08T02:30:04.783Z,8.60
2022-12-08T02:32:48.485Z,8.60
2022-12-08T02:35:27.117Z,8.60
2022-12-08T02:37:59.727Z,8.50
2022-12-08T02:40:56.795Z,8.50
2022-12-08T02:43:42.440Z,8.50
2022-12-08T02:46:13.549Z,8.50
2022-12-08T02:48:41.707Z,8.50
2022-12-08T02:51:08.609Z,8.50
2022-12-08T02:53:36.335Z,8.50
2022-12-08T02:56:34.362Z,8.40
2022-12-08T02:59:16.351Z,8.40
2022-12-08T03:01:55.316Z,8.40
2022-12-08T03:04:44.710Z,8.50
2022-12-08T03:07:27.953Z,8.50
2022-12-08T03:09:58.029Z,8.60
2022-12-08T03:12:34.268Z,8.60
2022-12-08T03:15:09.476Z,8.70
2022-12-08T03:17:39.440Z,8.60
2022-12-08T03:20:12.282Z,8.70
2022-12-08T03:22:41.275Z,8.70
2022-12-08T03:25:12.956Z,8.60
2022-12-08T03:27:39.876Z,8.60
2022-12-08T03:30:07.687Z,8.70
2022-12-08T03:32:39.482Z,8.70
2022-12-08T03:35:11.369Z,8.70
2022-12-08T03:37:40.325Z,8.50
2022-12-08T03:40:11.935Z,8.50
2022-12-08T03:42:38.922Z,8.40
2022-12-08T03:45:06.525Z,8.40
2022-12-08T03:47:33.565Z,8.40
2022-12-08T03:50:00.389Z,8.40
2022-12-08T03:52:27.263Z,8.40
2022-12-08T03:54:54.425Z,8.50
2022-12-08T03:57:21.766Z,8.60
2022-12-08T03:59:48.820Z,8.60
2022-12-08T04:02:16.243Z,8.70
2022-12-08T04:04:43.971Z,8.70
2022-12-08T04:07:10.797Z,8.70
2022-12-08T04:09:39.007Z,8.60
2022-12-08T04:12:06.430Z,8.70
2022-12-08T04:14:33.724Z,8.60
2022-12-08T04:17:00.527Z,8.60
2022-12-08T04:19:27.469Z,8.60
2022-12-08T04:21:55.490Z,8.50
2022-12-08T04:24:22.368Z,8.50
2022-12-08T04:26:50.622Z,8.60
2022-12-08T04:29:17.576Z,8.60
2022-12-08T04:31:44.661Z,8.60
2022-12-08T04:34:11.636Z,8.60
2022-12-08T04:36:38.558Z,8.70
2022-12-08T04:39:05.682Z,8.70
2022-12-08T04:41:32.646Z,8.70
2022-12-08T04:43:59.934Z,8.70
2022-12-08T04:46:26.750Z,8.70
2022-12-08T04:48:54.038Z,8.60
2022-12-08T04:51:21.601Z,8.60
2022-12-08T04:53:48.649Z,8.50
2022-12-08T04:56:17.506Z,8.50
2022-12-08T04:58:44.904Z,8.50
2022-12-08T05:01:11.849Z,8.60
2022-12-08T05:03:38.698Z,8.60
2022-12-08T05:06:06.257Z,8.70
2022-12-08T05:08:33.484Z,8.70
2022-12-08T05:11:05.712Z,8.70
2022-12-08T05:13:33.021Z,8.70
2022-12-08T05:16:08.064Z,8.70
2022-12-08T05:18:36.161Z,8.70
2022-12-08T05:21:03.556Z,8.70
2022-12-08T05:23:31.068Z,8.60
2022-12-08T05:25:58.698Z,8.60
2022-12-08T05:28:41.182Z,8.70
2022-12-08T05:31:09.468Z,8.70
2022-12-08T05:33:36.334Z,8.70
2022-12-08T05:36:03.815Z,8.60
2022-12-08T05:38:31.119Z,8.60
2022-12-08T05:40:58.444Z,8.70
2022-12-08T05:43:25.365Z,8.70
2022-12-08T05:45:52.648Z,8.70
2022-12-08T05:48:20.105Z,8.60
2022-12-08T05:50:51.494Z,8.60
2022-12-08T05:53:20.252Z,8.70
2022-12-08T05:55:48.125Z,8.70
2022-12-08T05:58:19.255Z,8.60
2022-12-08T06:00:47.490Z,8.60
2022-12-08T06:03:16.092Z,8.60
2022-12-08T06:05:45.156Z,8.60
2022-12-08T06:08:12.716Z,8.60
2022-12-08T06:10:41.523Z,8.60
2022-12-08T06:13:08.964Z,8.60
2022-12-08T06:15:37.524Z,8.60
2022-12-08T06:18:05.163Z,8.70
2022-12-08T06:20:32.355Z,8.70
2022-12-08T06:22:59.870Z,8.70
2022-12-08T06:25:26.789Z,8.70
2022-12-08T06:27:53.675Z,8.70
2022-12-08T06:30:20.604Z,8.60
2022-12-08T06:32:47.993Z,8.60
2022-12-08T06:35:14.956Z,8.70
2022-12-08T06:37:41.785Z,8.80
2022-12-08T06:40:09.110Z,8.70
2022-12-08T06:42:45.022Z,8.70
2022-12-08T06:45:14.016Z,8.80
2022-12-08T06:47:41.898Z,8.80
2022-12-08T06:50:10.143Z,8.80
2022-12-08T06:52:45.622Z,8.80
2022-12-08T06:55:35.361Z,8.70
2022-12-08T06:58:04.022Z,8.80
2022-12-08T07:00:30.909Z,8.40
2022-12-08T07:02:57.864Z,8.90
2022-12-08T07:05:25.002Z,8.90
2022-12-08T07:07:52.013Z,8.90
2022-12-08T07:10:18.975Z,8.90
2022-12-08T07:12:46.240Z,9.00
2022-12-08T07:15:13.110Z,9.00
2022-12-08T07:17:39.943Z,9.10
2022-12-08T07:20:07.939Z,9.00
2022-12-08T07:22:35.283Z,8.90
2022-12-08T07:25:02.551Z,8.90
2022-12-08T07:27:29.494Z,8.90
2022-12-08T07:29:56.465Z,9.00
2022-12-08T07:32:24.494Z,9.00
2022-12-08T07:34:51.505Z,8.90
2022-12-08T07:37:18.405Z,8.90
2022-12-08T07:39:45.249Z,9.00
2022-12-08T07:42:12.438Z,9.00
2022-12-08T07:44:39.297Z,9.00
2022-12-08T07:47:06.130Z,9.10
2022-12-08T07:49:33.292Z,9.10
2022-12-08T07:52:00.161Z,9.20
2022-12-08T07:54:27.791Z,9.10
2022-12-08T07:56:57.975Z,9.00
2022-12-08T07:59:24.966Z,8.90
2022-12-08T08:02:13.150Z,9.00
2022-12-08T08:04:38.609Z,9.10
2022-12-08T08:07:05.495Z,9.20
2022-12-08T08:09:32.490Z,9.20
2022-12-08T08:12:28.925Z,9.20
2022-12-08T08:14:46.214Z,9.20
2022-12-08T08:17:13.216Z,9.20
2022-12-08T08:19:40.074Z,9.30
2022-12-08T08:22:07.088Z,9.30
2022-12-08T08:24:33.978Z,9.20
2022-12-08T08:27:00.949Z,9.20
2022-12-08T08:29:27.828Z,9.30
2022-12-08T08:31:54.869Z,9.40
2022-12-08T08:34:21.877Z,9.50
2022-12-08T08:36:48.783Z,9.40
2022-12-08T08:39:15.624Z,9.50
2022-12-08T08:41:42.572Z,9.30
2022-12-08T08:44:09.449Z,9.30
2022-12-08T08:46:36.815Z,9.40
2022-12-08T08:49:03.964Z,9.40
2022-12-08T08:51:30.875Z,9.40
2022-12-08T08:53:58.088Z,9.30
2022-12-08T08:56:26.075Z,9.30
2022-12-08T08:58:53.849Z,9.30
2022-12-08T09:01:23.366Z,9.30
2022-12-08T09:03:50.645Z,9.30
2022-12-08T09:06:18.139Z,9.30
2022-12-08T09:08:45.644Z,9.30
2022-12-08T09:11:13.067Z,9.20
2022-12-08T09:13:40.152Z,9.20
2022-12-08T09:16:08.645Z,9.20
2022-12-08T09:18:35.720Z,9.30
2022-12-08T09:21:13.236Z,9.30
2022-12-08T09:23:40.200Z,9.20
2022-12-08T09:26:08.291Z,9.20
2022-12-08T09:28:35.565Z,9.30
2022-12-08T09:31:02.717Z,9.40
2022-12-08T09:33:29.694Z,9.30
2022-12-08T09:35:57.076Z,9.30
2022-12-08T09:38:24.030Z,9.40
2022-12-08T09:40:53.385Z,9.40
2022-12-08T09:43:51.572Z,9.30
2022-12-08T09:46:20.425Z,9.30
2022-12-08T09:48:56.068Z,9.30
2022-12-08T09:51:30.691Z,9.40
2022-12-08T09:54:20.389Z,9.50
2022-12-08T09:56:49.206Z,9.50
2022-12-08T09:59:36.446Z,9.60
2022-12-08T10:02:10.032Z,9.60
2022-12-08T10:04:38.846Z,9.60
2022-12-08T10:07:18.025Z,9.60
2022-12-08T10:10:09.782Z,9.70
2022-12-08T10:12:48.687Z,9.70
2022-12-08T10:15:33.535Z,9.70
2022-12-08T10:18:03.400Z,9.80
2022-12-08T10:20:43.203Z,9.60
2022-12-08T10:23:12.917Z,9.70
2022-12-08T10:25:49.064Z,9.60
2022-12-08T10:28:16.056Z,9.40
2022-12-08T10:30:43.743Z,9.40
2022-12-08T10:33:16.392Z,9.40
2022-12-08T10:35:49.815Z,9.10
2022-12-08T10:38:18.422Z,9.00
2022-12-08T10:40:46.826Z,8.80
2022-12-08T10:43:25.752Z,8.70
2022-12-08T10:45:53.188Z,8.80
2022-12-08T10:48:24.670Z,8.70
2022-12-08T10:50:58.123Z,8.80
2022-12-08T10:53:28.760Z,8.70
2022-12-08T10:56:02.293Z,8.50
2022-12-08T10:58:45.798Z,8.50
2022-12-08T11:01:15.700Z,8.60
2022-12-08T11:03:59.145Z,8.70
2022-12-08T11:06:31.043Z,8.80
2022-12-08T11:09:00.442Z,8.90
2022-12-08T11:11:50.421Z,9.00
2022-12-08T11:14:33.311Z,9.00
2022-12-08T11:17:14.658Z,9.10
2022-12-08T11:19:44.052Z,9.20
2022-12-08T11:23:01.511Z,9.10
2022-12-08T11:25:28.419Z,9.10
2022-12-08T11:27:59.459Z,9.10
2022-12-08T11:30:37.847Z,9.20
2022-12-08T11:33:24.849Z,9.20
2022-12-08T11:36:14.496Z,9.20
2022-12-08T11:38:44.471Z,9.30
2022-12-08T11:41:18.137Z,9.40
2022-12-08T11:43:53.210Z,9.40
2022-12-08T11:46:32.565Z,8.40
2022-12-08T11:49:12.353Z,9.60
2022-12-08T11:52:02.008Z,9.60
2022-12-08T11:55:02.785Z,9.70
2022-12-08T11:57:30.388Z,9.70
2022-12-08T11:59:58.775Z,9.90
2022-12-08T12:02:29.963Z,10.20
2022-12-08T12:05:11.452Z,10.40
2022-12-08T12:08:01.355Z,10.50
2022-12-08T12:10:42.673Z,10.90
2022-12-08T12:13:18.675Z,11.20
2022-12-08T12:16:19.072Z,11.50
2022-12-08T12:19:02.539Z,11.60
2022-12-08T12:21:39.454Z,11.70
2022-12-08T12:24:10.957Z,11.70
2022-12-08T12:26:49.266Z,11.70
2022-12-08T12:29:18.645Z,11.70
2022-12-08T12:31:53.369Z,11.80
2022-12-08T12:34:28.123Z,11.90
2022-12-08T12:36:59.230Z,11.90
2022-12-08T12:39:29.974Z,11.70
2022-12-08T12:42:05.233Z,11.70
2022-12-08T12:44:37.797Z,11.70
2022-12-08T12:47:10.343Z,11.90
2022-12-08T12:49:43.885Z,12.10
2022-12-08T12:52:16.650Z,12.30
2022-12-08T12:54:50.609Z,12.30
2022-12-08T12:57:21.088Z,12.60
2022-12-08T12:59:55.790Z,12.50
2022-12-08T13:02:32.719Z,12.50
2022-12-08T13:05:17.116Z,12.50
2022-12-08T13:07:54.593Z,12.40
2022-12-08T13:10:32.283Z,12.20
2022-12-08T13:13:18.716Z,11.90
2022-12-08T13:16:15.478Z,11.70
2022-12-08T13:18:57.331Z,11.60
2022-12-08T13:21:31.755Z,11.30
2022-12-08T13:24:10.500Z,11.00
2022-12-08T13:26:45.487Z,10.90
2022-12-08T13:29:19.143Z,10.90
2022-12-08T13:31:55.636Z,10.90
2022-12-08T13:34:29.177Z,11.00
2022-12-08T13:37:11.606Z,11.00
2022-12-08T13:40:10.568Z,11.00
2022-12-08T13:42:40.672Z,10.90
2022-12-08T13:46:04.330Z,10.90
2022-12-08T13:57:28.877Z,10.40
2022-12-08T14:00:06.224Z,10.40
2022-12-08T14:02:39.671Z,10.30
2022-12-08T14:05:20.405Z,10.30
2022-12-08T14:07:55.173Z,10.20
2022-12-08T14:10:32.203Z,10.20
2022-12-08T14:13:05.887Z,10.20
2022-12-08T14:15:37.872Z,10.20
2022-12-08T14:18:07.128Z,10.30
2022-12-08T14:20:57.906Z,10.30
2022-12-08T14:23:22.883Z,10.30
2022-12-08T14:25:50.425Z,10.30
2022-12-08T14:28:17.546Z,10.30
2022-12-08T14:30:44.937Z,10.30
2022-12-08T14:33:19.088Z,10.30
2022-12-08T14:35:52.449Z,10.10
2022-12-08T14:38:21.100Z,10.10
2022-12-08T14:41:01.153Z,10.00
2022-12-08T14:43:30.536Z,10.00
2022-12-08T14:46:18.840Z,10.00
2022-12-08T14:48:46.249Z,9.90
2022-12-08T14:51:22.915Z,9.90
2022-12-08T14:54:00.754Z,10.00
2022-12-08T14:56:38.160Z,10.00
2022-12-08T14:59:19.852Z,10.00
2022-12-08T15:01:49.080Z,10.00
2022-12-08T15:04:24.346Z,10.00
2022-12-08T15:06:57.709Z,10.00
2022-12-08T15:09:36.789Z,9.90
2022-12-08T15:12:15.526Z,9.80
2022-12-08T15:14:55.896Z,9.80
2022-12-08T15:17:36.214Z,9.80
2022-12-08T15:20:04.773Z,9.80
2022-12-08T15:22:32.294Z,9.80
2022-12-08T15:24:59.201Z,9.80
2022-12-08T15:27:29.162Z,9.80
2022-12-08T15:29:56.002Z,9.80
2022-12-08T15:32:24.040Z,9.70
2022-12-08T15:34:51.134Z,9.70
2022-12-08T15:37:23.190Z,9.70
2022-12-08T15:39:50.931Z,9.80
2022-12-08T15:42:17.993Z,9.80
2022-12-08T15:44:51.641Z,9.80
2022-12-08T15:47:21.288Z,8.70
2022-12-08T15:49:49.814Z,9.80
2022-12-08T15:52:22.372Z,9.80
2022-12-08T15:54:49.845Z,9.80
2022-12-08T15:58:04.416Z,9.80
2022-12-08T16:00:51.381Z,9.80
2022-12-08T16:09:19.466Z,9.70
2022-12-08T16:12:07.708Z,9.70
2022-12-08T16:17:22.056Z,9.70
2022-12-08T16:19:48.811Z,9.70
2022-12-08T16:25:22.330Z,9.70
2022-12-08T16:28:05.496Z,9.60
2022-12-08T16:30:39.656Z,9.60
2022-12-08T16:33:06.719Z,9.60
2022-12-08T16:35:33.746Z,9.50
2022-12-08T16:38:01.002Z,9.50
2022-12-08T16:40:28.263Z,9.50
2022-12-08T16:42:55.289Z,9.50
2022-12-08T16:45:25.746Z,9.50
2022-12-08T16:47:55.678Z,9.50
2022-12-08T16:50:26.978Z,9.50
2022-12-08T16:53:00.675Z,9.40
2022-12-08T16:55:28.366Z,9.70
2022-12-08T16:57:56.261Z,9.40
2022-12-08T17:00:25.438Z,9.60
2022-12-08T17:02:53.502Z,9.60
2022-12-08T17:05:22.135Z,9.50
2022-12-08T17:07:51.259Z,9.50
2022-12-08T17:10:21.612Z,9.40
2022-12-08T17:12:49.035Z,9.40
2022-12-08T17:15:20.351Z,9.40
2022-12-08T17:17:47.977Z,9.40
2022-12-08T17:20:25.049Z,9.40
2022-12-08T17:22:55.486Z,9.40
2022-12-08T17:25:22.441Z,9.40
2022-12-08T17:27:50.436Z,9.50
2022-12-08T17:30:17.966Z,9.40
2022-12-08T17:32:45.474Z,9.50
2022-12-08T17:35:14.822Z,9.40
2022-12-08T17:37:43.368Z,9.40
2022-12-08T17:40:11.430Z,9.50
2022-12-08T17:42:38.847Z,9.50
2022-12-08T17:45:07.515Z,9.60
2022-12-08T17:47:34.810Z,9.60
2022-12-08T17:50:02.678Z,9.50
2022-12-08T17:52:33.473Z,9.50
2022-12-08T17:55:03.444Z,9.30
2022-12-08T17:57:31.443Z,9.50
2022-12-08T17:59:58.457Z,8.70
2022-12-08T18:02:25.857Z,9.50
2022-12-08T18:04:52.683Z,9.50
2022-12-08T18:07:19.899Z,9.50
2022-12-08T18:09:46.764Z,9.50
2022-12-08T18:12:13.654Z,9.50
2022-12-08T18:14:41.511Z,9.40
2022-12-08T18:17:08.720Z,9.40
2022-12-08T18:19:35.567Z,9.50
2022-12-08T18:22:02.878Z,9.60
2022-12-08T18:24:29.683Z,9.60
2022-12-08T18:26:57.833Z,9.50
2022-12-08T18:29:25.495Z,9.70
2022-12-08T18:31:52.664Z,9.60
2022-12-08T18:34:19.839Z,9.60
2022-12-08T18:36:47.047Z,9.60
2022-12-08T18:39:22.059Z,9.70
2022-12-08T18:41:49.141Z,9.60
2022-12-08T18:44:16.536Z,9.70
2022-12-08T18:46:43.429Z,9.70
2022-12-08T18:49:15.979Z,9.60
2022-12-08T18:51:43.525Z,9.50
2022-12-08T18:54:11.962Z,9.60
2022-12-08T18:56:39.377Z,9.70
2022-12-08T18:59:09.388Z,9.60
2022-12-08T19:01:38.546Z,9.60
2022-12-08T19:06:55.025Z,9.60
2022-12-08T19:09:22.796Z,9.60
2022-12-08T19:11:49.787Z,9.60
2022-12-08T19:14:16.741Z,9.60
2022-12-08T19:16:44.027Z,9.50
2022-12-08T19:19:10.865Z,9.40
2022-12-08T19:21:43.040Z,9.40
2022-12-08T19:24:13.111Z,9.40
2022-12-08T19:26:40.105Z,9.40
2022-12-08T19:29:07.306Z,9.30
2022-12-08T19:31:34.318Z,9.30
2022-12-08T19:34:01.315Z,9.20
2022-12-08T19:36:31.742Z,9.40
2022-12-08T19:39:17.445Z,9.50
2022-12-08T19:42:03.871Z,9.50
2022-12-08T19:44:49.290Z,9.60
2022-12-08T19:47:16.311Z,9.50
2022-12-08T19:49:43.513Z,9.40
2022-12-08T19:52:10.513Z,9.30
2022-12-08T19:54:37.998Z,9.30
2022-12-08T19:57:05.384Z,9.20
2022-12-08T19:59:32.704Z,9.20
2022-12-08T20:01:59.804Z,9.30
2022-12-08T20:04:27.637Z,9.30
2022-12-08T20:06:56.562Z,9.30
2022-12-08T20:09:24.451Z,9.20
2022-12-08T20:11:54.745Z,9.10
2022-12-08T20:14:23.319Z,9.00
2022-12-08T20:16:50.695Z,9.10
2022-12-08T20:19:17.836Z,9.10
2022-12-08T20:21:45.110Z,9.10
2022-12-08T20:24:12.074Z,9.10
2022-12-08T20:26:38.961Z,9.10
2022-12-08T20:29:05.917Z,9.10
2022-12-08T20:31:33.764Z,9.10
2022-12-08T20:34:01.536Z,9.20
2022-12-08T20:36:29.512Z,9.20
2022-12-08T20:38:57.319Z,9.10
2022-12-08T20:41:24.938Z,9.10
2022-12-08T20:43:52.520Z,9.10
2022-12-08T20:46:21.364Z,9.20
2022-12-08T20:48:49.225Z,9.20
2022-12-08T20:51:19.897Z,9.30
2022-12-08T20:53:47.919Z,9.20
2022-12-08T20:56:19.952Z,9.20
2022-12-08T20:58:48.595Z,9.10
2022-12-08T21:01:19.631Z,9.20
2022-12-08T21:03:48.651Z,9.20
2022-12-08T21:06:20.284Z,9.30
2022-12-08T21:08:47.651Z,9.30
2022-12-08T21:11:15.381Z,9.30
2022-12-08T21:13:43.479Z,9.40
2022-12-08T21:16:15.276Z,9.40
2022-12-08T21:18:42.950Z,9.40
2022-12-08T21:21:13.090Z,9.40
2022-12-08T21:23:41.744Z,9.50
2022-12-08T21:26:15.587Z,9.40
2022-12-08T21:28:43.299Z,9.50
2022-12-08T21:31:13.453Z,9.40
2022-12-08T21:33:40.680Z,9.30
2022-12-08T21:36:16.512Z,9.30
2022-12-08T21:38:44.264Z,9.20
2022-12-08T21:41:15.156Z,9.30
2022-12-08T21:43:43.311Z,9.30
2022-12-08T21:46:17.304Z,9.30
2022-12-08T21:48:44.472Z,9.30
2022-12-08T21:51:11.588Z,9.40
2022-12-08T21:53:38.400Z,9.30
2022-12-08T21:56:08.880Z,9.30
2022-12-08T21:58:36.357Z,9.30
2022-12-08T22:01:07.979Z,9.30
2022-12-08T22:03:35.663Z,9.30
2022-12-08T22:06:10.849Z,9.30
2022-12-08T22:08:38.102Z,9.20
2022-12-08T22:11:06.431Z,9.30
2022-12-08T22:13:38.719Z,9.30
2022-12-08T22:16:09.546Z,9.30
2022-12-08T22:18:37.370Z,9.30
2022-12-08T22:21:15.929Z,9.30
2022-12-08T22:23:44.038Z,9.30
2022-12-08T22:26:11.911Z,9.20
2022-12-08T22:28:40.807Z,9.10
2022-12-08T22:31:10.037Z,9.20
2022-12-08T22:33:37.620Z,9.20
2022-12-08T22:36:10.683Z,9.20
2022-12-08T22:38:38.385Z,9.20
2022-12-08T22:41:06.380Z,9.20
2022-12-08T22:43:34.025Z,9.10
2022-12-08T22:46:00.893Z,9.10
2022-12-08T22:48:28.821Z,9.10
2022-12-08T22:51:02.025Z,9.10
2022-12-08T22:53:29.265Z,9.00
2022-12-08T22:55:56.477Z,9.00
2022-12-08T22:58:23.273Z,8.90
2022-12-08T23:00:50.582Z,8.90
2022-12-08T23:03:18.277Z,8.90
2022-12-08T23:05:45.813Z,8.80
2022-12-08T23:08:15.956Z,8.80
2022-12-08T23:10:44.734Z,8.90
2022-12-08T23:13:12.977Z,9.00
2022-12-08T23:15:40.923Z,9.00
2022-12-08T23:18:08.179Z,9.00
2022-12-08T23:20:36.110Z,8.90
2022-12-08T23:23:03.188Z,8.90
2022-12-08T23:25:30.105Z,8.90
2022-12-08T23:27:57.467Z,8.90
2022-12-08T23:30:25.536Z,8.60
2022-12-08T23:32:56.598Z,9.10
2022-12-08T23:35:23.689Z,9.00
2022-12-08T23:37:50.785Z,8.80
2022-12-08T23:40:18.269Z,8.90
2022-12-08T23:42:45.260Z,9.00
2022-12-08T23:45:12.508Z,9.00
2022-12-08T23:47:39.467Z,8.90
2022-12-08T23:50:07.811Z,8.80
2022-12-08T23:52:35.206Z,8.90
2022-12-08T23:55:02.324Z,9.90
2022-12-08T23:57:29.228Z,8.80
2022-12-08T23:59:56.208Z,8.90
